Time;durP1;ratioP1;P1;durP2;ratioP2;P2;SDS_P1;SDS_P2;PMS_P1;PMS_P2;Temp;Humidity;BMP_temperature;BMP_pressure;BME280_temperature;BME280_humidity;BME280_pressure;Samples;Min_cycle;Max_cycle;Signal;HPM_P1;HPM_P2
2023/05/03 00:02:01;;;;;;;1.90;1.80;;;7.30;99.90;;;;;;4979391;28;20127;-75
2023/05/03 00:04:27;;;;;;;1.77;1.67;;;7.20;99.90;;;;;;4978869;28;20031;-75
2023/05/03 00:06:53;;;;;;;2.15;2.05;;;7.30;99.90;;;;;;4978609;28;20034;-74
2023/05/03 00:09:20;;;;;;;1.95;1.85;;;7.30;99.90;;;;;;4980036;28;20042;-74
2023/05/03 00:11:45;;;;;;;2.40;2.20;;;7.30;99.90;;;;;;4980934;28;20031;-75
2023/05/03 00:14:11;;;;;;;2.40;2.20;;;7.30;99.90;;;;;;4981264;28;20037;-74
2023/05/03 00:16:37;;;;;;;2.35;2.15;;;7.30;99.90;;;;;;4980924;28;20387;-74
2023/05/03 00:19:02;;;;;;;2.45;2.25;;;7.30;99.90;;;;;;4979590;28;20037;-74
2023/05/03 00:21:28;;;;;;;3.75;2.47;;;7.40;99.90;;;;;;4979920;28;20078;-74
2023/05/03 00:23:54;;;;;;;2.35;2.15;;;7.30;99.90;;;;;;4980484;28;20034;-74
2023/05/03 00:26:21;;;;;;;2.00;1.90;;;7.30;99.90;;;;;;4980453;28;20054;-74
2023/05/03 00:28:46;;;;;;;2.78;1.80;;;7.00;99.90;;;;;;4980331;28;20050;-74
2023/05/03 00:31:12;;;;;;;2.35;2.17;;;6.80;99.90;;;;;;4980130;28;20039;-74
2023/05/03 00:33:38;;;;;;;1.88;1.77;;;6.90;99.90;;;;;;4980559;28;20034;-74
2023/05/03 00:36:08;;;;;;;2.03;1.92;;;6.90;99.90;;;;;;4980973;28;20035;-74
2023/05/03 00:38:34;;;;;;;1.80;1.70;;;6.90;99.90;;;;;;4980934;28;20093;-74
2023/05/03 00:41:01;;;;;;;1.95;1.85;;;6.90;99.90;;;;;;4980746;28;20054;-75
2023/05/03 00:43:28;;;;;;;3.17;2.20;;;7.00;99.90;;;;;;4981402;28;20030;-74
2023/05/03 00:45:54;;;;;;;3.60;2.20;;;6.90;99.90;;;;;;4982010;28;20039;-74
2023/05/03 00:48:19;;;;;;;2.80;2.50;;;6.90;99.90;;;;;;4982818;28;20054;-74
2023/05/03 00:50:46;;;;;;;2.17;2.05;;;6.90;99.90;;;;;;4982036;28;20038;-74
2023/05/03 00:53:12;;;;;;;2.53;2.30;;;6.80;99.90;;;;;;4981991;28;20113;-75
2023/05/03 00:55:39;;;;;;;3.50;1.90;;;6.80;99.90;;;;;;4982074;28;20035;-75
2023/05/03 00:58:05;;;;;;;10.63;2.25;;;6.70;99.90;;;;;;4982514;28;20041;-74
2023/05/03 01:00:31;;;;;;;2.30;2.10;;;6.60;99.90;;;;;;4982899;28;20027;-74
2023/05/03 01:02:57;;;;;;;2.10;1.95;;;6.60;99.90;;;;;;4983073;28;20052;-75
2023/05/03 01:05:26;;;;;;;2.22;2.03;;;6.40;99.90;;;;;;4981740;28;20031;-74
2023/05/03 01:08:17;;;;;;;2.10;2.00;;;6.50;99.90;;;;;;4981257;28;20090;-76
2023/05/03 01:11:15;;;;;;;2.05;1.92;;;6.40;99.90;;;;;;4982008;28;20041;-75
2023/05/03 01:14:00;;;;;;;1.95;1.85;;;6.40;99.90;;;;;;4977941;28;20134;-77
2023/05/03 01:16:35;;;;;;;2.15;1.95;;;6.40;99.90;;;;;;4982296;28;20086;-79
2023/05/03 01:19:12;;;;;;;2.40;2.15;;;6.40;99.90;;;;;;4983093;28;20019;-78
2023/05/03 01:21:41;;;;;;;2.10;2.00;;;6.50;99.90;;;;;;4983945;28;20443;-75
2023/05/03 01:24:12;;;;;;;2.45;2.25;;;6.40;99.90;;;;;;4981824;28;20062;-81
2023/05/03 01:26:38;;;;;;;2.65;2.45;;;6.40;99.90;;;;;;4981974;28;20023;-79
2023/05/03 01:29:04;;;;;;;37.47;6.63;;;6.40;99.90;;;;;;4983282;28;20030;-74
2023/05/03 01:31:41;;;;;;;2.55;2.35;;;6.40;99.90;;;;;;4985397;28;20062;-74
2023/05/03 01:34:26;;;;;;;2.50;2.30;;;6.40;99.90;;;;;;4986183;28;20058;-75
2023/05/03 01:36:56;;;;;;;3.55;2.40;;;6.30;99.90;;;;;;4968281;28;20102;-81
2023/05/03 01:39:35;;;;;;;2.40;2.20;;;6.30;99.90;;;;;;4985903;28;20030;-78
2023/05/03 01:42:02;;;;;;;2.70;2.38;;;6.30;99.90;;;;;;4986108;28;20027;-76
2023/05/03 01:44:29;;;;;;;2.75;2.55;;;6.40;99.90;;;;;;4984919;28;20030;-80
2023/05/03 01:46:56;;;;;;;2.83;2.40;;;6.30;99.90;;;;;;4985085;28;20459;-74
2023/05/03 01:49:21;;;;;;;2.63;2.30;;;6.20;99.90;;;;;;4985980;28;20034;-75
2023/05/03 01:51:47;;;;;;;4.07;2.45;;;6.30;99.90;;;;;;4984734;28;20038;-74
2023/05/03 01:54:12;;;;;;;2.30;2.20;;;6.30;99.90;;;;;;4985622;28;20045;-74
2023/05/03 01:56:38;;;;;;;2.47;2.20;;;6.30;99.90;;;;;;4985527;28;20054;-75
2023/05/03 01:59:04;;;;;;;2.53;2.33;;;6.20;99.90;;;;;;4984582;28;20019;-74
2023/05/03 02:01:30;;;;;;;3.42;2.22;;;6.20;99.90;;;;;;4984175;28;20049;-75
2023/05/03 02:03:55;;;;;;;3.33;3.03;;;6.30;99.90;;;;;;4985689;28;20035;-75
2023/05/03 02:06:22;;;;;;;2.55;2.22;;;6.40;99.90;;;;;;4985788;28;20034;-75
2023/05/03 02:08:48;;;;;;;2.22;2.03;;;6.40;99.90;;;;;;4985186;28;20033;-75
2023/05/03 02:11:13;;;;;;;2.45;2.25;;;6.50;99.90;;;;;;4985250;28;20023;-74
2023/05/03 02:13:39;;;;;;;2.60;2.40;;;6.50;99.90;;;;;;4983879;28;20023;-75
2023/05/03 02:16:05;;;;;;;2.85;2.28;;;6.50;99.90;;;;;;4982489;28;20518;-75
2023/05/03 02:18:30;;;;;;;2.15;1.95;;;6.50;99.90;;;;;;4983841;28;20031;-75
2023/05/03 02:20:56;;;;;;;2.35;2.25;;;6.50;99.90;;;;;;4967725;28;20471;-74
2023/05/03 02:23:22;;;;;;;2.30;2.10;;;6.60;99.90;;;;;;4984982;28;20035;-74
2023/05/03 02:25:48;;;;;;;2.30;2.10;;;6.60;99.90;;;;;;4984373;28;20023;-76
2023/05/03 02:28:14;;;;;;;2.38;2.20;;;6.60;99.90;;;;;;4984889;28;20039;-74
2023/05/03 02:30:40;;;;;;;3.53;2.70;;;6.60;99.90;;;;;;4966725;28;20038;-75
2023/05/03 02:33:06;;;;;;;3.55;2.90;;;6.60;99.90;;;;;;4984114;28;20085;-75
2023/05/03 02:35:32;;;;;;;3.80;3.40;;;6.60;99.90;;;;;;4984096;28;20042;-76
2023/05/03 02:37:58;;;;;;;4.45;3.33;;;6.50;99.90;;;;;;4984358;28;20035;-75
2023/05/03 02:40:23;;;;;;;29.80;5.05;;;6.50;99.90;;;;;;4983748;28;20039;-75
2023/05/03 02:42:49;;;;;;;5.10;3.42;;;6.60;99.90;;;;;;4983461;28;20034;-75
2023/05/03 02:45:15;;;;;;;6.68;3.55;;;6.50;99.90;;;;;;4983888;28;20047;-74
2023/05/03 02:47:41;;;;;;;15.00;3.97;;;6.40;99.90;;;;;;4983452;28;20022;-75
2023/05/03 02:50:06;;;;;;;4.50;3.42;;;6.50;99.90;;;;;;4983718;28;20094;-74
2023/05/03 02:52:32;;;;;;;5.88;3.33;;;6.50;99.90;;;;;;4983560;28;20117;-75
2023/05/03 02:54:58;;;;;;;4.05;3.28;;;6.50;99.90;;;;;;4983595;28;20045;-74
2023/05/03 02:57:23;;;;;;;5.90;3.25;;;6.60;99.90;;;;;;4983857;28;20023;-74
2023/05/03 02:59:49;;;;;;;4.97;3.30;;;6.60;99.90;;;;;;4982771;28;20031;-74
2023/05/03 03:02:14;;;;;;;4.22;3.20;;;6.60;99.90;;;;;;4983032;28;20089;-74
2023/05/03 03:04:40;;;;;;;5.15;3.22;;;6.60;99.90;;;;;;4983204;28;20038;-74
2023/05/03 03:07:05;;;;;;;7.53;4.07;;;6.60;99.90;;;;;;4982728;28;20027;-74
2023/05/03 03:09:31;;;;;;;5.55;3.47;;;6.60;99.90;;;;;;4983620;28;20130;-74
2023/05/03 03:11:57;;;;;;;6.70;3.40;;;6.60;99.90;;;;;;4983218;28;20034;-74
2023/05/03 03:14:22;;;;;;;4.45;3.35;;;6.70;99.90;;;;;;4983376;28;20035;-75
2023/05/03 03:16:50;;;;;;;4.72;3.38;;;6.70;99.90;;;;;;4983804;28;20035;-75
2023/05/03 03:19:16;;;;;;;5.53;3.85;;;6.70;99.90;;;;;;4983698;28;20422;-75
2023/05/03 03:21:42;;;;;;;4.88;3.42;;;6.60;99.90;;;;;;4983219;28;20054;-74
2023/05/03 03:24:07;;;;;;;3.42;3.13;;;6.60;99.90;;;;;;4982788;28;20113;-76
2023/05/03 03:26:33;;;;;;;6.18;3.40;;;6.60;99.90;;;;;;4982929;28;20074;-75
2023/05/03 03:28:58;;;;;;;4.20;3.03;;;6.60;99.90;;;;;;4982531;28;20039;-77
2023/05/03 03:31:27;;;;;;;5.35;3.42;;;6.60;99.90;;;;;;4982602;28;20043;-74
2023/05/03 03:33:52;;;;;;;6.43;3.60;;;6.60;99.90;;;;;;4983284;28;20035;-76
2023/05/03 03:36:18;;;;;;;5.40;3.92;;;6.60;99.90;;;;;;4982408;28;20121;-75
2023/05/03 03:38:44;;;;;;;7.13;4.32;;;6.60;99.90;;;;;;4983557;28;20038;-77
2023/05/03 03:41:10;;;;;;;5.50;4.18;;;6.60;99.90;;;;;;4982380;28;20050;-74
2023/05/03 03:43:35;;;;;;;5.68;3.72;;;6.60;99.90;;;;;;4982400;28;20035;-76
2023/05/03 03:46:01;;;;;;;7.30;4.05;;;6.60;99.90;;;;;;4981771;28;20031;-75
2023/05/03 03:48:26;;;;;;;4.45;3.85;;;6.70;99.90;;;;;;4983018;28;20030;-74
2023/05/03 03:50:52;;;;;;;8.05;3.80;;;6.70;99.90;;;;;;4982230;28;20037;-75
2023/05/03 03:53:18;;;;;;;6.43;3.60;;;6.80;99.90;;;;;;4981389;28;20038;-75
2023/05/03 03:55:43;;;;;;;4.88;4.20;;;6.70;99.90;;;;;;4982223;28;20043;-75
2023/05/03 03:58:09;;;;;;;24.48;5.47;;;6.70;99.90;;;;;;4981598;28;20027;-76
2023/05/03 04:00:35;;;;;;;5.60;4.05;;;6.70;99.90;;;;;;4981212;28;20027;-75
2023/05/03 04:03:01;;;;;;;5.05;3.88;;;6.80;99.90;;;;;;4981780;28;20151;-74
2023/05/03 04:05:26;;;;;;;8.85;4.75;;;6.80;99.90;;;;;;4981770;28;20048;-74
2023/05/03 04:07:52;;;;;;;6.90;4.80;;;6.70;99.90;;;;;;4981458;28;20030;-74
2023/05/03 04:10:17;;;;;;;19.63;5.35;;;6.60;99.90;;;;;;4980953;28;20038;-75
2023/05/03 04:12:43;;;;;;;41.17;6.57;;;6.50;99.90;;;;;;4981193;28;20026;-74
2023/05/03 04:15:10;;;;;;;7.03;5.03;;;6.50;99.90;;;;;;4982321;28;20027;-76
2023/05/03 04:17:36;;;;;;;21.27;7.05;;;6.50;99.90;;;;;;4981420;28;20034;-75
2023/05/03 04:20:09;;;;;;;6.55;5.22;;;6.40;99.90;;;;;;4979449;28;20540;-79
2023/05/03 04:22:37;;;;;;;19.48;7.35;;;6.40;99.90;;;;;;4977911;28;20030;-80
2023/05/03 04:25:04;;;;;;;11.73;5.90;;;6.50;99.90;;;;;;4976819;28;20027;-74
2023/05/03 04:27:29;;;;;;;8.63;5.50;;;6.50;99.90;;;;;;4977919;28;20155;-74
2023/05/03 04:29:55;;;;;;;7.53;5.55;;;6.50;99.90;;;;;;4977957;28;20066;-74
2023/05/03 04:32:22;;;;;;;7.72;5.47;;;6.50;99.90;;;;;;4978030;28;20045;-73
2023/05/03 04:34:50;;;;;;;7.60;5.82;;;6.60;99.90;;;;;;4978258;28;20027;-74
2023/05/03 04:37:17;;;;;;;8.38;6.57;;;6.70;99.90;;;;;;4978648;28;20069;-74
2023/05/03 04:39:44;;;;;;;8.38;6.07;;;6.70;99.90;;;;;;4977663;28;20106;-74
2023/05/03 04:42:09;;;;;;;10.48;6.30;;;6.80;99.90;;;;;;4977454;28;20037;-74
2023/05/03 04:44:35;;;;;;;12.63;6.43;;;6.80;99.90;;;;;;4977878;28;20030;-74
2023/05/03 04:47:01;;;;;;;39.13;13.30;;;6.90;99.90;;;;;;4978239;28;20027;-74
2023/05/03 04:49:27;;;;;;;11.40;6.75;;;6.90;99.90;;;;;;4977822;28;20038;-73
2023/05/03 04:51:52;;;;;;;10.45;6.38;;;7.00;99.90;;;;;;4978243;28;20027;-74
2023/05/03 04:54:18;;;;;;;26.75;7.55;;;7.00;99.90;;;;;;4977484;28;20045;-73
2023/05/03 04:56:44;;;;;;;41.05;9.45;;;6.90;99.90;;;;;;4976803;28;20027;-74
2023/05/03 04:59:09;;;;;;;20.45;8.57;;;7.00;99.90;;;;;;4977677;28;20031;-74
2023/05/03 05:01:35;;;;;;;20.10;8.82;;;6.90;99.90;;;;;;4976344;28;20073;-74
2023/05/03 05:04:00;;;;;;;13.02;7.90;;;7.00;99.90;;;;;;4976870;28;20023;-74
2023/05/03 05:06:26;;;;;;;37.55;8.63;;;7.00;99.90;;;;;;4976385;28;20065;-74
2023/05/03 05:08:52;;;;;;;12.77;7.60;;;7.00;99.90;;;;;;4978042;28;20034;-75
2023/05/03 05:11:19;;;;;;;16.65;8.68;;;7.00;99.90;;;;;;4976955;28;20027;-75
2023/05/03 05:13:45;;;;;;;19.17;8.43;;;7.00;99.90;;;;;;4959855;28;20035;-74
2023/05/03 05:16:11;;;;;;;12.27;8.50;;;7.10;99.90;;;;;;4960602;28;20039;-74
2023/05/03 05:18:37;;;;;;;13.77;8.70;;;7.10;99.90;;;;;;4977238;28;20097;-79
2023/05/03 05:21:02;;;;;;;14.05;8.85;;;7.10;99.90;;;;;;4976443;28;20047;-74
2023/05/03 05:23:28;;;;;;;16.05;8.85;;;7.10;99.90;;;;;;4960293;28;20038;-74
2023/05/03 05:25:59;;;;;;;13.63;9.23;;;7.20;99.90;;;;;;4977038;28;20074;-74
2023/05/03 05:28:25;;;;;;;14.32;8.70;;;7.20;99.90;;;;;;4977440;28;20378;-74
2023/05/03 05:30:51;;;;;;;17.13;9.65;;;7.30;99.90;;;;;;4975813;28;20049;-72
2023/05/03 05:33:16;;;;;;;12.45;8.68;;;7.30;99.90;;;;;;4977191;28;20035;-73
2023/05/03 05:35:45;;;;;;;13.82;8.77;;;7.30;99.90;;;;;;4976986;28;20044;-73
2023/05/03 05:38:11;;;;;;;13.88;9.55;;;7.40;99.90;;;;;;4976579;28;20030;-73
2023/05/03 05:40:37;;;;;;;16.45;8.98;;;7.40;99.90;;;;;;4976358;28;20041;-74
2023/05/03 05:43:03;;;;;;;15.40;9.85;;;7.50;99.90;;;;;;4976370;28;20034;-73
2023/05/03 05:45:29;;;;;;;15.07;9.75;;;7.50;99.90;;;;;;4976499;28;20041;-73
2023/05/03 05:47:55;;;;;;;13.48;8.85;;;7.60;99.90;;;;;;4976351;28;20414;-72
2023/05/03 05:50:21;;;;;;;14.10;9.43;;;7.60;99.90;;;;;;4976482;28;20027;-73
2023/05/03 05:52:49;;;;;;;16.13;10.15;;;7.60;99.90;;;;;;4976349;28;20114;-73
2023/05/03 05:55:15;;;;;;;;;;;7.70;99.90;;;;;;4976048;28;20034;-72
2023/05/03 05:57:40;;;;;;;12.65;8.80;;;7.70;99.90;;;;;;4976097;28;20343;-72
2023/05/03 06:00:13;;;;;;;14.68;9.23;;;7.70;99.90;;;;;;4976150;28;20034;-72
2023/05/03 06:02:43;;;;;;;15.00;9.23;;;7.70;99.90;;;;;;4974392;28;20042;-72
2023/05/03 06:05:10;;;;;;;13.95;9.50;;;7.80;99.90;;;;;;4976046;28;20035;-73
2023/05/03 06:07:35;;;;;;;15.00;9.68;;;7.80;99.90;;;;;;4976220;28;20044;-73
2023/05/03 06:10:02;;;;;;;13.90;9.27;;;7.90;99.90;;;;;;4976387;28;20031;-73
2023/05/03 06:12:28;;;;;;;17.40;10.00;;;8.00;99.90;;;;;;4975516;28;20041;-73
2023/05/03 06:14:54;;;;;;;17.77;10.70;;;8.10;99.90;;;;;;4975421;28;20102;-73
2023/05/03 06:17:21;;;;;;;20.40;11.57;;;8.10;99.90;;;;;;4978740;28;20042;-73
2023/05/03 06:19:48;;;;;;;24.02;12.27;;;8.10;99.90;;;;;;4979359;28;20058;-75
2023/05/03 06:22:14;;;;;;;22.45;12.45;;;8.20;99.90;;;;;;4980036;28;20066;-73
2023/05/03 06:24:39;;;;;;;19.70;11.05;;;8.20;99.90;;;;;;4979707;28;20037;-72
2023/05/03 06:27:05;;;;;;;25.88;12.90;;;8.30;99.90;;;;;;4979186;28;20377;-72
2023/05/03 06:29:31;;;;;;;22.13;12.63;;;8.30;99.90;;;;;;4979792;28;20074;-72
2023/05/03 06:31:56;;;;;;;24.55;11.88;;;8.20;99.90;;;;;;4977840;28;20387;-73
2023/05/03 06:34:22;;;;;;;22.88;12.38;;;8.20;99.90;;;;;;4979277;28;20042;-74
2023/05/03 06:36:49;;;;;;;20.67;12.05;;;8.20;99.90;;;;;;4962310;28;20037;-73
2023/05/03 06:39:15;;;;;;;21.88;12.70;;;8.20;99.90;;;;;;4980049;28;20034;-73
2023/05/03 06:41:41;;;;;;;18.83;10.77;;;8.20;99.90;;;;;;4979590;28;20018;-73
2023/05/03 06:44:06;;;;;;;19.83;11.27;;;8.10;99.90;;;;;;4979230;28;20533;-73
2023/05/03 06:46:32;;;;;;;20.33;11.57;;;8.20;99.90;;;;;;4978962;28;20035;-73
2023/05/03 06:48:58;;;;;;;23.00;11.93;;;8.20;99.90;;;;;;4979362;28;20093;-73
2023/05/03 06:51:29;;;;;;;22.05;12.35;;;8.30;99.90;;;;;;4979503;28;20053;-74
2023/05/03 06:53:55;;;;;;;21.92;11.57;;;8.30;99.90;;;;;;4978856;28;20031;-73
2023/05/03 06:56:21;;;;;;;21.10;12.55;;;8.30;99.90;;;;;;4978840;28;20538;-73
2023/05/03 06:58:46;;;;;;;26.02;13.73;;;8.30;99.90;;;;;;4978903;28;20031;-73
2023/05/03 07:01:12;;;;;;;21.17;12.35;;;8.40;99.90;;;;;;4979171;28;20390;-73
2023/05/03 07:03:38;;;;;;;22.30;13.32;;;8.40;99.90;;;;;;4978824;28;20031;-73
2023/05/03 07:06:04;;;;;;;21.88;12.30;;;8.40;99.90;;;;;;4979112;28;20030;-73
2023/05/03 07:08:30;;;;;;;21.55;12.27;;;8.40;99.90;;;;;;4979315;28;20031;-73
2023/05/03 07:10:56;;;;;;;21.05;12.30;;;8.40;99.90;;;;;;4978789;28;20022;-73
2023/05/03 07:13:21;;;;;;;22.35;12.20;;;8.50;99.90;;;;;;4978827;28;20034;-73
2023/05/03 07:15:47;;;;;;;24.63;13.23;;;8.50;99.90;;;;;;4978467;28;20113;-74
2023/05/03 07:18:13;;;;;;;21.25;12.80;;;8.60;99.90;;;;;;4977986;28;20041;-73
2023/05/03 07:20:38;;;;;;;22.15;11.63;;;8.60;99.90;;;;;;4978581;28;20050;-72
2023/05/03 07:23:05;;;;;;;22.80;13.50;;;8.60;99.90;;;;;;4978549;28;20077;-73
2023/05/03 07:25:31;;;;;;;25.65;13.07;;;8.60;99.90;;;;;;4961682;28;20379;-73
2023/05/03 07:27:57;;;;;;;23.17;12.57;;;8.60;99.90;;;;;;4977555;28;20463;-73
2023/05/03 07:30:23;;;;;;;26.05;14.50;;;8.70;99.90;;;;;;4977403;28;20025;-73
2023/05/03 07:32:49;;;;;;;24.42;14.35;;;8.80;99.90;;;;;;4977116;28;20039;-72
2023/05/03 07:35:15;;;;;;;22.13;13.23;;;9.00;99.90;;;;;;4977966;28;20030;-73
2023/05/03 07:37:41;;;;;;;26.60;14.15;;;9.00;99.90;;;;;;4960568;28;20459;-73
2023/05/03 07:40:08;;;;;;;24.48;14.00;;;9.10;99.90;;;;;;4960889;28;20410;-73
2023/05/03 07:42:34;;;;;;;26.67;14.80;;;9.10;99.90;;;;;;4977986;28;20382;-73
2023/05/03 07:45:00;;;;;;;24.60;13.25;;;9.20;99.90;;;;;;4977717;28;20110;-73
2023/05/03 07:47:26;;;;;;;22.77;13.52;;;9.20;99.90;;;;;;4978106;28;20114;-75
2023/05/03 07:49:52;;;;;;;22.75;14.30;;;9.20;99.90;;;;;;4977801;28;20054;-73
2023/05/03 07:52:18;;;;;;;27.02;14.38;;;9.30;99.90;;;;;;4977786;28;20031;-73
2023/05/03 07:54:44;;;;;;;25.13;14.10;;;9.30;99.90;;;;;;4977509;28;20041;-74
2023/05/03 07:57:15;;;;;;;24.65;13.63;;;9.20;99.90;;;;;;4977862;28;20435;-72
2023/05/03 07:59:43;;;;;;;24.25;14.80;;;9.20;99.90;;;;;;4960824;28;20438;-73
2023/05/03 08:02:09;;;;;;;27.60;14.55;;;9.20;99.90;;;;;;4977163;28;20042;-73
2023/05/03 08:04:35;;;;;;;26.42;15.02;;;9.30;99.90;;;;;;4977809;28;20034;-73
2023/05/03 08:07:03;;;;;;;26.27;14.52;;;9.30;99.90;;;;;;4977518;28;20031;-73
2023/05/03 08:09:29;;;;;;;21.88;13.43;;;9.50;99.90;;;;;;4977955;28;20058;-73
2023/05/03 08:11:55;;;;;;;26.00;13.98;;;9.60;99.90;;;;;;4977476;28;20075;-73
2023/05/03 08:14:21;;;;;;;24.58;14.25;;;9.60;99.90;;;;;;4977746;28;20467;-75
2023/05/03 08:16:47;;;;;;;24.98;14.18;;;9.60;99.90;;;;;;4977401;28;20019;-73
2023/05/03 08:19:13;;;;;;;23.75;13.23;;;9.60;99.90;;;;;;4960767;28;20045;-74
2023/05/03 08:21:38;;;;;;;22.33;13.48;;;9.60;99.90;;;;;;4978622;28;20489;-73
2023/05/03 08:24:05;;;;;;;25.15;13.90;;;9.60;99.90;;;;;;4978050;28;20023;-73
2023/05/03 08:26:31;;;;;;;21.75;12.73;;;9.80;99.90;;;;;;4977965;28;20023;-75
2023/05/03 08:28:57;;;;;;;24.83;12.80;;;10.00;99.90;;;;;;4960258;28;20027;-74
2023/05/03 08:31:23;;;;;;;21.88;13.05;;;10.20;99.90;;;;;;4977016;28;20097;-73
2023/05/03 08:33:49;;;;;;;20.67;12.32;;;10.20;99.90;;;;;;4977473;28;20031;-73
2023/05/03 08:36:14;;;;;;;22.25;12.77;;;10.40;99.90;;;;;;4977420;28;20510;-73
2023/05/03 08:38:40;;;;;;;20.08;12.63;;;10.50;99.90;;;;;;4976254;28;20483;-73
2023/05/03 08:41:18;;;;;;;20.90;12.40;;;10.50;99.90;;;;;;4976575;28;20034;-73
2023/05/03 08:43:47;;;;;;;19.90;12.30;;;10.60;99.90;;;;;;4976269;28;20027;-74
2023/05/03 08:46:13;;;;;;;20.25;11.45;;;10.70;99.90;;;;;;4977788;28;20262;-73
2023/05/03 08:48:39;;;;;;;18.25;10.93;;;10.80;99.90;;;;;;4977259;28;20463;-73
2023/05/03 08:51:07;;;;;;;18.58;12.20;;;10.70;99.90;;;;;;4977417;28;20035;-74
2023/05/03 08:53:32;;;;;;;22.35;12.77;;;10.70;99.90;;;;;;4976952;28;20066;-74
2023/05/03 08:55:58;;;;;;;19.52;12.23;;;10.70;99.90;;;;;;4977098;28;20396;-73
2023/05/03 08:58:24;;;;;;;19.88;12.20;;;10.70;99.90;;;;;;4977084;28;20034;-74
2023/05/03 09:00:49;;;;;;;19.52;12.10;;;10.70;99.90;;;;;;4975398;28;20109;-73
2023/05/03 09:03:15;;;;;;;19.17;12.23;;;10.80;99.90;;;;;;4976006;28;20027;-72
2023/05/03 09:05:42;;;;;;;21.77;13.05;;;10.80;99.90;;;;;;4959198;28;20411;-72
2023/05/03 09:08:11;;;;;;;24.65;13.27;;;10.90;99.90;;;;;;4959692;28;20054;-71
2023/05/03 09:10:38;;;;;;;24.45;14.93;;;10.90;99.90;;;;;;4976479;28;20046;-72
2023/05/03 09:13:05;;;;;;;19.58;12.68;;;11.00;99.90;;;;;;4976820;28;20039;-72
2023/05/03 09:15:31;;;;;;;21.50;13.85;;;11.00;99.90;;;;;;4976115;28;20054;-73
2023/05/03 09:18:07;;;;;;;16.83;12.02;;;11.10;99.90;;;;;;4976308;28;20031;-74
2023/05/03 09:20:35;;;;;;;19.67;12.38;;;11.10;99.90;;;;;;4976340;28;20106;-79
2023/05/03 09:23:01;;;;;;;20.10;14.10;;;11.30;99.90;;;;;;4975948;28;20038;-72
2023/05/03 09:25:40;;;;;;;18.10;12.43;;;11.50;99.90;;;;;;4976330;28;20034;-73
2023/05/03 09:28:06;;;;;;;21.38;13.20;;;11.50;99.90;;;;;;4975863;28;20094;-73
2023/05/03 09:30:31;;;;;;;17.65;11.70;;;11.60;99.90;;;;;;4976615;28;20470;-73
2023/05/03 09:32:57;;;;;;;19.65;12.55;;;11.70;99.90;;;;;;4976858;28;20030;-74
2023/05/03 09:35:22;;;;;;;16.85;11.75;;;11.60;99.90;;;;;;4977249;28;20046;-75
2023/05/03 09:37:48;;;;;;;15.55;11.35;;;11.60;99.90;;;;;;4976713;28;20031;-75
2023/05/03 09:40:17;;;;;;;15.25;10.38;;;11.70;99.90;;;;;;4977037;28;20093;-74
2023/05/03 09:43:10;;;;;;;16.35;10.40;;;11.80;99.90;;;;;;4961129;28;20364;-75
2023/05/03 09:45:37;;;;;;;17.17;11.57;;;11.80;99.90;;;;;;4978355;28;20106;-74
2023/05/03 09:48:04;;;;;;;18.95;11.40;;;11.80;99.90;;;;;;4978062;28;20023;-75
2023/05/03 09:50:34;;;;;;;15.85;11.07;;;11.90;99.90;;;;;;4979411;28;20026;-75
2023/05/03 09:53:02;;;;;;;18.02;11.30;;;11.90;99.90;;;;;;4963939;28;20037;-74
2023/05/03 09:55:31;;;;;;;15.80;11.20;;;11.90;99.90;;;;;;4981772;28;20443;-74
2023/05/03 09:57:58;;;;;;;18.67;11.43;;;12.00;99.90;;;;;;4982509;28;20459;-76
2023/05/03 10:00:24;;;;;;;14.57;10.52;;;11.90;99.90;;;;;;4981270;28;20033;-75
2023/05/03 10:02:53;;;;;;;16.27;10.48;;;12.00;99.90;;;;;;4981113;28;20550;-76
2023/05/03 10:05:20;;;;;;;19.23;10.48;;;12.00;99.90;;;;;;4981176;28;20085;-75
2023/05/03 10:07:51;;;;;;;17.13;11.13;;;12.10;99.90;;;;;;4981314;28;20546;-74
2023/05/03 10:10:17;;;;;;;13.60;9.57;;;12.30;99.90;;;;;;4980032;28;20758;-75
2023/05/03 10:12:45;;;;;;;14.15;10.25;;;12.60;99.90;;;;;;4980762;28;20067;-75
2023/05/03 10:15:12;;;;;;;14.13;9.43;;;12.70;99.90;;;;;;4980265;28;20027;-75
2023/05/03 10:17:39;;;;;;;12.70;9.15;;;12.70;99.90;;;;;;4980195;28;20111;-74
2023/05/03 10:20:32;;;;;;;14.15;9.70;;;12.70;99.90;;;;;;4979847;28;20102;-75
2023/05/03 10:23:03;;;;;;;14.00;9.13;;;12.70;99.90;;;;;;4979494;28;20031;-74
2023/05/03 10:25:30;;;;;;;15.15;10.52;;;12.60;99.90;;;;;;4980089;28;20505;-75
2023/05/03 10:28:08;;;;;;;13.75;9.18;;;12.70;99.90;;;;;;4980184;28;20027;-74
2023/05/03 10:30:38;;;;;;;13.38;9.60;;;12.90;99.90;;;;;;4963257;28;20035;-75
2023/05/03 10:33:12;;;;;;;13.93;10.43;;;13.40;99.90;;;;;;4980566;28;20027;-74
2023/05/03 10:35:40;;;;;;;9.63;7.70;;;13.90;99.90;;;;;;4982727;28;20041;-74
2023/05/03 10:38:16;;;;;;;14.55;9.05;;;14.10;99.90;;;;;;4983276;28;20034;-76
2023/05/03 10:40:42;;;;;;;8.60;7.70;;;14.10;99.90;;;;;;4983795;28;20030;-74
2023/05/03 10:43:28;;;;;;;11.15;8.23;;;14.00;99.90;;;;;;4982878;28;20035;-74
2023/05/03 10:46:00;;;;;;;11.52;8.80;;;14.30;99.90;;;;;;4981158;28;20027;-75
2023/05/03 10:48:27;;;;;;;9.75;7.97;;;14.70;99.90;;;;;;4980458;28;20026;-74
2023/05/03 10:50:54;;;;;;;10.93;7.28;;;14.90;99.90;;;;;;4979958;28;20054;-75
2023/05/03 10:53:37;;;;;;;10.02;7.32;;;14.60;99.90;;;;;;4981437;28;20027;-74
2023/05/03 10:56:11;;;;;;;12.63;6.90;;;14.70;99.90;;;;;;4984567;28;20085;-76
2023/05/03 10:58:38;;;;;;;8.77;7.20;;;14.50;99.90;;;;;;4982797;28;20035;-74
2023/05/03 11:01:05;;;;;;;9.90;7.68;;;14.10;99.90;;;;;;4980818;28;20054;-74
2023/05/03 11:03:46;;;;;;;9.95;7.28;;;14.00;99.90;;;;;;4978753;28;20114;-75
2023/05/03 11:06:36;;;;;;;10.45;6.93;;;14.00;99.90;;;;;;4977724;28;20058;-70
2023/05/03 11:09:05;;;;;;;10.65;7.05;;;13.70;99.90;;;;;;4977326;28;20097;-72
2023/05/03 11:11:31;;;;;;;8.40;6.60;;;13.50;99.90;;;;;;4977268;28;20050;-71
2023/05/03 11:13:57;;;;;;;9.02;6.70;;;13.30;99.90;;;;;;4977745;28;20042;-71
2023/05/03 11:16:24;;;;;;;9.38;6.63;;;13.20;99.90;;;;;;4977578;28;20117;-71
2023/05/03 11:18:50;;;;;;;9.52;7.35;;;13.10;99.90;;;;;;4977444;28;20031;-72
2023/05/03 11:21:16;;;;;;;8.25;6.65;;;13.10;99.90;;;;;;4976908;28;20061;-71
2023/05/03 11:23:43;;;;;;;9.45;6.82;;;13.30;99.90;;;;;;4977070;28;20030;-70
2023/05/03 11:26:09;;;;;;;8.88;7.03;;;13.20;99.90;;;;;;4977047;28;20042;-71
2023/05/03 11:28:37;;;;;;;9.82;6.90;;;13.10;99.90;;;;;;4977762;28;20033;-71
2023/05/03 11:31:05;;;;;;;9.63;7.38;;;13.20;99.90;;;;;;4976505;28;20051;-71
2023/05/03 11:33:31;;;;;;;8.02;6.32;;;13.30;99.90;;;;;;4976907;28;20490;-70
2023/05/03 11:35:56;;;;;;;8.63;5.75;;;13.30;99.90;;;;;;4977106;28;20035;-70
2023/05/03 11:38:22;;;;;;;8.77;6.00;;;13.70;99.90;;;;;;4976922;28;20042;-70
2023/05/03 11:40:48;;;;;;;7.65;5.95;;;13.60;99.90;;;;;;4976882;28;20030;-70
2023/05/03 11:43:13;;;;;;;7.72;6.28;;;13.50;99.90;;;;;;4976886;28;20074;-71
2023/05/03 11:45:49;;;;;;;8.15;6.72;;;13.30;99.90;;;;;;4976960;28;20044;-71
2023/05/03 11:48:15;;;;;;;8.68;7.13;;;13.30;99.90;;;;;;4977613;28;20034;-70
2023/05/03 11:50:50;;;;;;;10.85;7.00;;;13.30;99.90;;;;;;4977080;28;20424;-69
2023/05/03 11:53:17;;;;;;;12.13;7.40;;;13.70;99.90;;;;;;4976902;28;20109;-70
2023/05/03 11:55:46;;;;;;;10.63;7.63;;;14.10;99.90;;;;;;4976261;28;20038;-70
2023/05/03 11:58:17;;;;;;;8.85;7.10;;;14.40;99.90;;;;;;4976471;28;20027;-72
2023/05/03 12:00:45;;;;;;;12.18;6.93;;;14.50;99.90;;;;;;4975911;28;20034;-70
2023/05/03 12:03:16;;;;;;;9.27;7.60;;;14.30;99.90;;;;;;4976587;28;20038;-69
2023/05/03 12:05:42;;;;;;;9.40;7.05;;;14.70;99.90;;;;;;4976749;28;20105;-70
2023/05/03 12:08:10;;;;;;;8.43;6.65;;;15.00;99.90;;;;;;4976415;28;20110;-69
2023/05/03 12:10:36;;;;;;;7.82;6.50;;;15.20;99.90;;;;;;4976000;28;20034;-69
2023/05/03 12:13:02;;;;;;;7.57;5.90;;;15.40;99.90;;;;;;4975638;28;20027;-70
2023/05/03 12:15:38;;;;;;;7.25;6.00;;;15.70;99.90;;;;;;4976467;28;20117;-70
2023/05/03 12:18:09;;;;;;;7.03;4.95;;;15.70;99.90;;;;;;4958870;28;20482;-70
2023/05/03 12:20:35;;;;;;;5.10;4.60;;;15.80;99.90;;;;;;4975971;28;20170;-70
2023/05/03 12:23:02;;;;;;;9.57;5.68;;;15.80;99.90;;;;;;4976659;28;20037;-71
2023/05/03 12:25:29;;;;;;;6.77;5.90;;;15.40;99.90;;;;;;4975742;28;20109;-70
2023/05/03 12:27:56;;;;;;;7.28;5.13;;;15.20;99.90;;;;;;4975831;28;20085;-70
2023/05/03 12:30:22;;;;;;;6.78;5.10;;;15.60;99.90;;;;;;4976503;28;20039;-70
2023/05/03 12:32:48;;;;;;;6.88;5.18;;;15.50;99.90;;;;;;4976157;28;20034;-70
2023/05/03 12:35:14;;;;;;;6.40;5.25;;;15.50;99.90;;;;;;4976129;28;20038;-70
2023/05/03 12:37:39;;;;;;;6.43;5.55;;;15.10;99.90;;;;;;4976314;28;20027;-70
2023/05/03 12:40:06;;;;;;;6.10;5.43;;;15.20;99.90;;;;;;4976364;28;20110;-70
2023/05/03 12:42:31;;;;;;;7.28;6.10;;;15.10;99.90;;;;;;4975640;28;20539;-70
2023/05/03 12:44:58;;;;;;;7.30;5.63;;;15.20;99.90;;;;;;4975852;28;20031;-70
2023/05/03 12:47:24;;;;;;;6.25;5.38;;;15.50;99.90;;;;;;4976839;28;20035;-70